Time;durP1;ratioP1;P1;durP2;ratioP2;P2;SDS_P1;SDS_P2;PMS_P1;PMS_P2;Temp;Humidity;BMP_temperature;BMP_pressure;BME280_temperature;BME280_humidity;BME280_pressure;Samples;Min_cycle;Max_cycle;Signal;HPM_P1;HPM_P2
2022/06/23 00:00:33;;;;;;;4.90;2.92;;;17.70;99.90;;;-141.84;49.95;19931.72;5076312;28;20311;-60
2022/06/23 00:03:04;;;;;;;3.38;2.78;;;17.70;99.90;;;-141.84;50.62;19923.59;5075188;28;20220;-60
2022/06/23 00:05:41;;;;;;;3.60;3.30;;;17.70;99.90;;;-141.84;49.86;19919.53;5075900;28;20224;-60
2022/06/23 00:08:15;;;;;;;3.58;3.28;;;17.70;99.90;;;-141.84;49.95;19937.81;5075535;28;20224;-59
2022/06/23 00:10:49;;;;;;;3.80;3.13;;;17.70;99.90;;;-141.84;49.67;19945.94;5072635;28;20189;-60
2022/06/23 00:13:26;;;;;;;4.05;3.00;;;17.70;99.90;;;-141.84;50.04;19927.66;5073730;28;20323;-58
2022/06/23 00:15:56;;;;;;;3.13;2.88;;;17.60;99.90;;;-141.84;50.13;19913.44;5072726;28;20239;-59
2022/06/23 00:18:31;;;;;;;3.88;2.75;;;17.60;99.90;;;-141.84;50.13;19909.34;5072607;28;20307;-59
2022/06/23 00:21:05;;;;;;;3.33;3.00;;;17.50;99.90;;;-141.84;50.00;19915.47;5072997;28;20660;-59
2022/06/23 00:23:38;;;;;;;2.90;2.70;;;17.50;99.90;;;-141.84;50.07;19927.66;5072532;28;20224;-59
2022/06/23 00:26:13;;;;;;;3.20;3.00;;;17.60;99.90;;;-141.84;50.73;19887.00;5073065;28;20247;-60
2022/06/23 00:28:50;;;;;;;2.88;2.60;;;17.60;99.90;;;-141.84;50.60;19882.94;5073074;28;20735;-59
2022/06/23 00:31:29;;;;;;;3.70;2.90;;;17.50;99.90;;;-141.84;50.53;19897.16;5072992;28;20296;-59
2022/06/23 00:34:01;;;;;;;3.22;3.03;;;17.50;99.90;;;-141.84;51.09;19856.53;5072314;28;20232;-60
2022/06/23 00:36:38;;;;;;;3.92;2.88;;;17.50;99.90;;;-141.84;51.78;19846.34;5072738;28;20228;-60
2022/06/23 00:39:21;;;;;;;3.08;2.83;;;17.40;99.90;;;-141.84;52.78;19803.69;5072373;28;20224;-59
2022/06/23 00:41:51;;;;;;;3.10;2.72;;;17.30;99.90;;;-141.84;52.39;19830.09;5072697;28;20307;-58
2022/06/23 00:44:30;;;;;;;2.90;2.70;;;17.20;99.90;;;-141.84;52.12;19811.81;5072550;28;20234;-60
2022/06/23 00:47:06;;;;;;;4.00;2.90;;;17.10;99.90;;;-141.84;52.40;19836.19;5072531;28;20238;-60
2022/06/23 00:49:48;;;;;;;3.17;2.92;;;17.10;99.90;;;-141.84;51.52;19858.56;5072999;28;20594;-59
2022/06/23 00:52:29;;;;;;;3.30;3.05;;;17.00;99.90;;;-141.84;51.58;19856.53;5072886;28;20583;-59
2022/06/23 00:55:09;;;;;;;3.60;3.03;;;17.10;99.90;;;-141.84;52.16;19821.97;5072115;28;20228;-59
2022/06/23 00:57:44;;;;;;;3.60;2.80;;;17.10;99.90;;;-141.84;52.01;19803.69;5072190;28;20250;-59
2022/06/23 01:00:22;;;;;;;3.25;3.05;;;17.10;99.90;;;-141.84;50.95;19860.59;5072156;28;20239;-59
2022/06/23 01:02:58;;;;;;;3.88;3.47;;;17.00;99.90;;;-141.84;50.74;19846.34;5072346;28;20307;-59
2022/06/23 01:05:37;;;;;;;4.30;3.20;;;17.10;99.90;;;-141.84;52.28;19850.41;5072007;28;20311;-59
2022/06/23 01:08:17;;;;;;;3.25;2.95;;;17.10;99.90;;;-141.84;52.25;19846.34;5071741;28;20651;-59
2022/06/23 01:10:53;;;;;;;3.88;3.10;;;17.10;99.90;;;-141.84;51.80;19856.53;5072150;28;20252;-58
2022/06/23 01:13:35;;;;;;;3.65;3.20;;;17.10;99.90;;;-141.84;52.28;19852.44;5072393;28;20211;-58
2022/06/23 01:16:14;;;;;;;3.33;2.90;;;17.10;99.90;;;-141.84;52.33;19801.66;5071713;28;20229;-60
2022/06/23 01:18:52;;;;;;;3.53;3.17;;;17.00;99.90;;;-141.84;53.21;19795.53;5071537;28;20247;-58
2022/06/23 01:21:26;;;;;;;3.55;3.25;;;16.90;99.90;;;-141.84;53.72;19748.81;5071851;28;20228;-59
2022/06/23 01:24:24;;;;;;;5.72;3.15;;;16.80;99.90;;;-141.84;53.93;19744.75;5071514;28;20306;-59
2022/06/23 01:27:19;;;;;;;3.75;3.20;;;16.80;99.90;;;-141.84;54.31;19740.69;5071759;28;20250;-59
2022/06/23 01:29:56;;;;;;;3.95;3.10;;;16.70;99.90;;;-141.84;54.27;19740.69;5071852;28;20319;-59
2022/06/23 01:32:31;;;;;;;3.47;3.17;;;16.80;99.90;;;-141.84;55.68;19720.34;5072057;28;20222;-60
2022/06/23 01:35:14;;;;;;;3.72;2.97;;;16.70;99.90;;;-141.84;54.31;19748.81;5071805;28;20204;-61
2022/06/23 01:37:51;;;;;;;3.55;2.90;;;16.70;99.90;;;-141.84;54.25;19746.78;5072103;28;20301;-59
2022/06/23 01:40:25;;;;;;;3.53;3.22;;;16.70;99.90;;;-141.84;54.66;19761.00;5072034;28;20211;-59
2022/06/23 01:43:03;;;;;;;3.50;3.20;;;16.60;99.90;;;-141.84;54.17;19726.44;5071598;28;20613;-59
2022/06/23 01:45:43;;;;;;;3.83;3.45;;;16.60;99.90;;;-141.84;55.61;19726.44;5071409;28;20228;-59
2022/06/23 01:48:51;;;;;;;3.38;3.13;;;16.60;99.90;;;-141.84;55.97;19700.03;5071068;28;20235;-59
2022/06/23 01:51:23;;;;;;;3.50;3.20;;;16.60;99.90;;;-141.84;54.12;19724.41;5071279;28;20261;-59
2022/06/23 01:53:55;;;;;;;4.28;3.75;;;16.50;99.90;;;-141.84;53.06;19754.91;5071482;28;20315;-59
2022/06/23 01:56:41;;;;;;;3.85;3.50;;;16.60;99.90;;;-141.84;52.47;19789.44;5071101;28;20315;-59
2022/06/23 01:59:27;;;;;;;4.30;3.90;;;16.70;99.90;;;-141.84;52.03;19809.78;5071020;28;20301;-58
2022/06/23 02:02:20;;;;;;;3.70;3.40;;;16.80;99.90;;;-141.84;52.07;19805.72;5071010;28;20272;-60
2022/06/23 02:04:59;;;;;;;4.05;3.75;;;16.90;99.90;;;-141.84;52.18;19807.75;5071441;28;20332;-59
2022/06/23 02:07:37;;;;;;;5.10;3.97;;;16.90;99.90;;;-141.84;52.25;19815.88;5071560;28;20217;-59
2022/06/23 02:10:19;;;;;;;4.43;3.95;;;17.00;99.90;;;-141.84;52.05;19846.34;5070716;28;20224;-58
2022/06/23 02:12:56;;;;;;;3.72;3.42;;;17.00;99.90;;;-141.84;52.60;19797.59;5071241;28;20220;-59
2022/06/23 02:15:34;;;;;;;4.93;3.45;;;16.90;99.90;;;-141.84;54.76;19736.59;5070825;28;20327;-59
2022/06/23 02:18:19;;;;;;;3.83;3.53;;;16.80;99.90;;;-141.84;55.25;19740.69;5070717;28;20354;-58
2022/06/23 02:21:05;;;;;;;3.72;3.47;;;16.80;99.90;;;-141.84;55.80;19720.34;5070986;28;20311;-59
2022/06/23 02:23:42;;;;;;;4.13;3.72;;;16.70;99.90;;;-141.84;56.03;19726.44;5070569;28;20307;-59
2022/06/23 02:26:20;;;;;;;3.97;3.65;;;16.50;99.90;;;-141.84;56.95;19667.50;5070903;28;20302;-60
2022/06/23 02:29:01;;;;;;;5.15;4.10;;;16.40;99.90;;;-141.84;57.93;19679.72;5070936;28;20188;-60
2022/06/23 02:31:42;;;;;;;4.47;3.83;;;16.40;99.90;;;-141.84;58.33;19683.78;5071168;28;20644;-59
2022/06/23 02:34:24;;;;;;;4.90;4.50;;;16.50;99.90;;;-141.84;58.57;19675.63;5070882;28;20216;-59
2022/06/23 02:37:08;;;;;;;4.85;4.38;;;16.50;99.90;;;-141.84;59.31;19655.31;5070408;28;20224;-59
2022/06/23 02:39:47;;;;;;;5.18;4.45;;;16.50;99.90;;;-141.84;59.82;19635.00;5070202;28;20303;-60
2022/06/23 02:42:28;;;;;;;5.05;4.65;;;16.50;99.90;;;-141.84;59.93;19663.44;5070704;28;20266;-59
2022/06/23 02:45:33;;;;;;;4.80;4.40;;;16.60;99.90;;;-141.84;60.75;19639.06;5070752;28;20315;-58
2022/06/23 02:48:24;;;;;;;5.55;4.78;;;16.60;99.90;;;-141.84;62.14;19604.50;5070249;28;20231;-58
2022/06/23 02:51:22;;;;;;;5.13;4.63;;;16.50;99.90;;;-141.84;62.17;19630.94;5070284;28;20693;-59
2022/06/23 02:54:39;;;;;;;5.72;5.13;;;16.40;99.90;;;-141.84;60.84;19639.06;5070442;28;20248;-61
2022/06/23 02:57:32;;;;;;;5.60;4.95;;;16.40;99.90;;;-141.84;60.50;19639.06;5070370;28;20312;-59
2022/06/23 03:00:08;;;;;;;5.85;4.53;;;16.40;99.90;;;-141.84;60.82;19626.88;5070263;28;20346;-58
2022/06/23 03:02:43;;;;;;;5.47;4.97;;;16.40;99.90;;;-141.84;61.59;19572.00;5070487;28;20224;-60
2022/06/23 03:05:26;;;;;;;5.22;4.80;;;16.30;99.90;;;-141.84;61.80;19569.97;5070332;28;20778;-59
2022/06/23 03:08:03;;;;;;;6.28;4.68;;;16.20;99.90;;;-141.84;61.27;19604.50;5070426;28;20188;-60
2022/06/23 03:10:38;;;;;;;4.95;4.45;;;16.20;99.90;;;-141.84;61.25;19565.91;5070666;28;20726;-59
2022/06/23 03:13:17;;;;;;;5.18;4.78;;;16.10;99.90;;;-141.84;60.40;19596.38;5070083;28;20314;-58
2022/06/23 03:15:54;;;;;;;5.20;4.80;;;16.20;99.90;;;-141.84;60.57;19618.75;5069959;28;20232;-59
2022/06/23 03:18:31;;;;;;;5.00;4.47;;;16.20;99.90;;;-141.84;61.66;19594.34;5069508;28;20751;-58
2022/06/23 03:21:07;;;;;;;5.70;4.22;;;16.20;99.90;;;-141.84;61.80;19567.94;5069968;28;20224;-59
2022/06/23 03:23:45;;;;;;;4.85;4.45;;;16.10;99.90;;;-141.84;62.55;19539.47;5055050;28;20231;-59
2022/06/23 03:26:23;;;;;;;5.38;4.05;;;16.10;99.90;;;-141.84;62.83;19545.56;5049792;28;20225;-60
2022/06/23 03:29:05;;;;;;;4.55;4.20;;;16.00;99.90;;;-141.84;63.13;19549.63;5050190;28;20281;-60
2022/06/23 03:31:42;;;;;;;4.53;4.13;;;16.00;99.90;;;-141.84;62.91;19517.13;5050215;28;20186;-59
2022/06/23 03:34:29;;;;;;;5.35;4.20;;;16.00;99.90;;;-141.84;63.01;19567.94;5059944;28;20238;-59
2022/06/23 03:37:03;;;;;;;4.97;3.97;;;16.00;99.90;;;-141.84;62.13;19572.00;5069881;28;20252;-59
2022/06/23 03:42:34;;;;;;;5.93;5.00;;;16.00;99.90;;;-141.84;62.60;19529.31;5069865;28;20224;-59
2022/06/23 03:45:20;;;;;;;4.73;4.30;;;16.00;99.90;;;-141.84;62.79;19527.28;5072530;28;20303;-59
2022/06/23 03:47:58;;;;;;;5.00;4.60;;;15.90;99.90;;;-141.84;63.03;19539.47;5073739;28;20735;-60
2022/06/23 03:50:32;;;;;;;4.65;4.25;;;15.90;99.90;;;-141.84;62.59;19545.56;5073589;28;20319;-59
2022/06/23 03:53:09;;;;;;;5.35;4.85;;;16.00;99.90;;;-141.84;62.93;19561.84;5073564;28;20185;-59
2022/06/23 03:55:47;;;;;;;4.40;4.00;;;15.90;99.90;;;-141.84;63.12;19500.88;5074245;28;20292;-61
2022/06/23 03:58:23;;;;;;;4.93;4.28;;;16.00;99.90;;;-141.84;62.96;19509.00;5073632;28;20244;-58
2022/06/23 04:01:04;;;;;;;4.80;4.30;;;16.00;99.90;;;-141.84;62.54;19547.59;5073124;28;20310;-59
2022/06/23 04:03:42;;;;;;;5.18;4.65;;;16.00;99.90;;;-141.84;61.28;19598.41;5073073;28;20228;-59
2022/06/23 04:06:22;;;;;;;4.90;4.43;;;16.00;99.90;;;-141.84;61.10;19574.03;5073420;28;20228;-60
2022/06/23 04:09:00;;;;;;;5.20;4.70;;;16.10;99.90;;;-141.84;59.28;19602.47;5073020;28;20220;-59
2022/06/23 04:11:44;;;;;;;5.45;4.63;;;16.20;99.90;;;-141.84;59.41;19602.47;5073162;28;20313;-58
2022/06/23 04:14:27;;;;;;;5.25;4.85;;;16.30;99.90;;;-141.84;59.03;19632.97;5073669;28;20307;-59
2022/06/23 04:17:12;;;;;;;5.47;4.97;;;16.40;99.90;;;-141.84;59.46;19626.88;5052712;28;20205;-60
2022/06/23 04:19:47;;;;;;;5.10;4.70;;;16.40;99.90;;;-141.84;58.51;19657.34;5067261;28;20220;-59
2022/06/23 04:22:23;;;;;;;6.15;5.55;;;16.50;99.90;;;-141.84;58.46;19618.75;5073031;28;20288;-60
2022/06/23 04:24:56;;;;;;;5.75;5.20;;;16.60;99.90;;;-141.84;58.23;19639.06;5073014;28;20228;-59
2022/06/23 04:27:32;;;;;;;5.57;5.07;;;16.60;99.90;;;-141.84;58.87;19602.47;5072878;28;20227;-59
2022/06/23 04:30:01;;;;;;;5.00;4.35;;;16.70;99.90;;;-141.84;58.96;19637.03;5072936;28;20217;-60
2022/06/23 04:32:35;;;;;;;5.95;5.40;;;16.70;99.90;;;-141.84;58.36;19673.59;5072767;28;20267;-60
2022/06/23 04:35:16;;;;;;;6.32;4.90;;;16.80;99.90;;;-141.84;58.33;19655.31;5073241;28;20271;-60
2022/06/23 04:37:58;;;;;;;5.38;4.75;;;16.80;99.90;;;-141.84;58.79;19647.19;5072725;28;20204;-59
2022/06/23 04:40:33;;;;;;;5.70;5.28;;;16.90;99.90;;;-141.84;57.55;19726.44;5072988;28;20695;-59
2022/06/23 04:43:13;;;;;;;5.88;5.28;;;17.00;99.90;;;-141.84;57.14;19704.09;5072619;28;20224;-59
2022/06/23 04:45:58;;;;;;;6.95;4.57;;;17.10;99.90;;;-141.84;57.29;19748.81;5072814;28;20236;-59
2022/06/23 04:48:37;;;;;;;5.97;5.47;;;17.30;99.90;;;-141.84;56.71;19750.84;5072343;28;20224;-59
2022/06/23 04:51:19;;;;;;;6.25;4.88;;;17.40;99.90;;;-141.84;54.29;19915.47;5072480;28;20805;-60
2022/06/23 04:53:57;;;;;;;5.15;4.70;;;17.90;99.90;;;-141.84;45.74;20380.91;5072377;28;20247;-60
2022/06/23 04:56:41;;;;;;;4.90;4.50;;;19.60;99.90;;;-141.84;40.66;20779.31;5072144;28;20258;-59
2022/06/23 04:59:35;;;;;;;5.53;4.57;;;21.60;99.90;;;-141.84;36.42;21253.00;5072378;28;20256;-59
2022/06/23 05:02:20;;;;;;;5.22;4.70;;;23.50;99.90;;;-141.84;33.57;21649.50;5072116;28;20232;-60
2022/06/23 05:04:58;;;;;;;4.65;4.25;;;;;;;-141.84;31.80;21930.09;5072737;28;20216;-60
2022/06/23 05:07:34;;;;;;;4.95;4.38;;;26.60;99.90;;;-141.84;30.19;22186.31;5072719;28;20191;-61
2022/06/23 05:10:07;;;;;;;4.13;3.78;;;;;;;-141.84;29.02;22444.59;5071823;28;20307;-60
2022/06/23 05:12:40;;;;;;;5.45;3.80;;;28.80;99.90;;;-141.84;28.14;22558.50;5071598;28;20252;-59
2022/06/23 05:15:20;;;;;;;5.63;4.00;;;29.10;99.90;;;-141.84;28.50;22544.25;5072473;28;20602;-60
2022/06/23 05:17:55;;;;;;;4.53;3.83;;;29.10;99.90;;;-141.84;27.91;22593.06;5071695;28;20307;-60
2022/06/23 05:20:33;;;;;;;5.15;4.35;;;29.50;99.80;;;-141.84;27.76;22692.72;5071892;28;20227;-61
2022/06/23 05:23:03;;;;;;;4.60;4.20;;;29.50;99.90;;;-141.84;27.27;22784.25;5071657;28;20446;-60
2022/06/23 05:25:38;;;;;;;4.70;4.20;;;;;;;-141.84;27.44;22814.75;5072166;28;20185;-61
2022/06/23 05:28:15;;;;;;;4.38;4.03;;;30.00;99.60;;;-141.84;26.82;22912.38;5071389;28;20220;-60
2022/06/23 05:30:52;;;;;;;5.22;4.05;;;29.50;98.70;;;-141.84;26.72;22940.84;5059914;28;20311;-59
2022/06/23 05:33:26;;;;;;;4.20;3.67;;;29.70;99.90;;;-141.84;27.15;22729.34;5051534;28;20225;-60
2022/06/23 05:36:03;;;;;;;4.95;4.57;;;29.30;99.90;;;-141.84;27.84;22560.53;5063659;28;20303;-60
2022/06/23 05:38:38;;;;;;;4.88;4.57;;;28.30;99.90;;;-141.84;27.20;22595.09;5071231;28;20307;-60
2022/06/23 05:41:17;;;;;;;5.40;4.93;;;28.00;98.40;;;-141.84;28.36;22379.53;5071528;28;20227;-59
2022/06/23 05:43:47;;;;;;;7.13;4.72;;;27.60;98.80;;;-141.84;29.46;22145.66;5071403;28;20189;-59
2022/06/23 05:46:21;;;;;;;4.55;4.15;;;27.00;99.00;;;-141.84;31.81;21714.56;5072468;28;20522;-59
2022/06/23 05:49:04;;;;;;;8.48;4.55;;;26.40;99.90;;;-141.84;33.10;21383.13;5070882;28;20301;-59
2022/06/23 05:51:41;;;;;;;4.75;4.22;;;25.60;99.90;;;-141.84;34.64;21238.78;5071292;28;20303;-59
2022/06/23 05:54:20;;;;;;;8.05;5.22;;;25.00;99.90;;;-141.84;34.81;21133.06;5071279;28;20312;-60
2022/06/23 05:56:53;;;;;;;5.55;5.15;;;24.50;99.90;;;-141.84;35.85;21000.91;5071431;28;20311;-58
2022/06/23 05:59:30;;;;;;;6.80;5.43;;;24.00;99.90;;;-141.84;36.37;20964.31;5071312;28;20239;-59
2022/06/23 06:02:07;;;;;;;5.93;4.95;;;23.90;99.90;;;-141.84;37.02;20964.31;5071191;28;20219;-59
2022/06/23 06:04:45;;;;;;;5.03;4.63;;;23.70;99.90;;;-141.84;37.57;20901.31;5071802;28;20181;-58
2022/06/23 06:07:20;;;;;;;6.95;4.47;;;23.70;99.90;;;-141.84;37.22;20899.28;5070883;28;20287;-59
2022/06/23 06:09:50;;;;;;;5.07;4.68;;;23.60;99.90;;;-141.84;37.30;20856.56;5070907;28;20320;-62
2022/06/23 06:12:22;;;;;;;5.80;5.25;;;23.40;99.90;;;-141.84;37.59;20874.88;5064191;28;20217;-63
2022/06/23 06:14:59;;;;;;;5.38;4.85;;;23.30;99.90;;;-141.84;37.88;20848.44;5070392;28;20784;-62
2022/06/23 06:17:32;;;;;;;6.13;5.10;;;23.40;99.90;;;-141.84;37.33;20891.13;5070828;28;20281;-63
2022/06/23 06:20:07;;;;;;;6.65;4.40;;;23.10;99.90;;;-141.84;37.30;20893.16;5070834;28;20212;-62
2022/06/23 06:22:53;;;;;;;6.88;4.65;;;23.30;99.90;;;-141.84;37.77;20844.38;5070682;28;20296;-63
2022/06/23 06:25:26;;;;;;;5.10;4.70;;;23.30;99.90;;;-141.84;37.27;20880.97;5071103;28;20212;-64
2022/06/23 06:28:01;;;;;;;5.18;4.78;;;23.50;99.90;;;-141.84;36.71;20905.38;5070617;28;20338;-64
2022/06/23 06:30:37;;;;;;;4.63;4.07;;;23.50;99.90;;;-141.84;37.11;20895.19;5070585;28;20243;-63
2022/06/23 06:33:07;;;;;;;5.00;4.50;;;23.70;99.90;;;-141.84;37.03;20899.28;5070364;28;20234;-62
2022/06/23 06:35:42;;;;;;;4.95;4.47;;;23.60;99.90;;;-141.84;36.92;20874.88;5071297;28;20315;-63
2022/06/23 06:38:14;;;;;;;5.38;4.88;;;23.60;99.90;;;-141.84;37.52;20870.81;5070818;28;20251;-64
2022/06/23 06:40:49;;;;;;;5.68;4.95;;;23.60;99.90;;;-141.84;36.40;20883.00;5070901;28;20197;-66
2022/06/23 06:43:22;;;;;;;5.03;4.45;;;23.70;99.90;;;-141.84;36.14;20901.31;5070901;28;20212;-63
2022/06/23 06:45:50;;;;;;;7.60;4.90;;;23.70;99.90;;;-141.84;35.95;20921.63;5070929;28;20713;-63
2022/06/23 06:48:27;;;;;;;5.63;4.15;;;23.70;99.90;;;-141.84;37.02;20876.91;5070638;28;20228;-63
2022/06/23 06:51:03;;;;;;;4.63;4.10;;;23.60;99.90;;;-141.84;36.42;20901.31;5070803;28;20342;-63
2022/06/23 06:53:37;;;;;;;6.43;4.35;;;23.70;99.90;;;-141.84;36.32;20911.47;5070270;28;20228;-62
2022/06/23 06:56:15;;;;;;;4.90;4.50;;;23.60;99.90;;;-141.84;37.53;20923.66;5070805;28;20722;-64
2022/06/23 06:58:55;;;;;;;4.97;4.57;;;23.70;99.90;;;-141.84;37.34;20911.47;5070144;28;20733;-63
2022/06/23 07:01:26;;;;;;;5.13;4.43;;;23.70;99.90;;;-141.84;36.29;20950.09;5071177;28;20193;-63
2022/06/23 07:03:56;;;;;;;5.45;4.13;;;23.80;99.90;;;-141.84;37.44;20870.81;5069946;28;20698;-62
2022/06/23 07:06:35;;;;;;;4.78;4.25;;;23.80;99.90;;;-141.84;37.99;20880.97;5070700;28;20332;-62
2022/06/23 07:09:16;;;;;;;5.30;4.80;;;23.80;99.90;;;-141.84;37.20;20931.78;5070171;28;20231;-63
2022/06/23 07:11:53;;;;;;;4.95;4.47;;;23.80;99.90;;;-141.84;37.21;20931.78;5070053;28;20343;-62
2022/06/23 07:14:31;;;;;;;4.30;4.00;;;23.80;99.90;;;-141.84;37.08;20925.69;5070242;28;20316;-62
2022/06/23 07:17:04;;;;;;;5.95;4.47;;;23.80;99.90;;;-141.84;38.11;20915.53;5070811;28;20191;-62
2022/06/23 07:19:43;;;;;;;6.13;4.28;;;23.80;99.90;;;-141.84;37.43;20919.59;5073588;28;20216;-62
2022/06/23 07:22:22;;;;;;;5.07;4.25;;;23.90;99.90;;;-141.84;37.77;20903.34;5071172;28;20281;-62
2022/06/23 07:24:57;;;;;;;4.90;4.18;;;23.90;99.90;;;-141.84;37.64;20923.66;5053694;28;20746;-63
2022/06/23 07:27:36;;;;;;;5.55;4.10;;;23.90;99.90;;;-141.84;38.03;20891.13;5054143;28;20244;-63
2022/06/23 07:30:11;;;;;;;6.75;4.32;;;23.90;99.90;;;-141.84;37.88;20941.97;5053882;28;20256;-62
2022/06/23 07:32:49;;;;;;;4.55;4.15;;;23.90;99.90;;;-141.84;37.55;20964.31;5053918;28;20236;-62
2022/06/23 07:35:34;;;;;;;4.72;4.30;;;24.00;99.90;;;-141.84;37.43;20944.00;5060571;28;20650;-64
2022/06/23 07:38:11;;;;;;;5.22;4.63;;;24.10;99.90;;;-141.84;37.20;20950.09;5074231;28;20581;-63
2022/06/23 07:40:49;;;;;;;4.90;4.20;;;24.20;99.90;;;-141.84;37.27;20937.91;5074036;28;20215;-62
2022/06/23 07:43:28;;;;;;;6.00;4.72;;;24.20;99.90;;;-141.84;37.70;20944.00;5074296;28;20318;-62
2022/06/23 07:46:00;;;;;;;5.68;4.40;;;24.00;99.90;;;-141.84;37.88;20956.19;5073900;28;20244;-62
2022/06/23 07:48:33;;;;;;;4.45;4.05;;;24.00;99.90;;;-141.84;37.52;20925.69;5073561;28;20760;-62
2022/06/23 07:51:06;;;;;;;4.05;3.65;;;23.90;99.90;;;-141.84;36.83;20941.97;5073843;28;20234;-61
2022/06/23 07:53:39;;;;;;;4.13;3.83;;;23.90;99.90;;;-141.84;37.67;20895.19;5073567;28;20228;-63
2022/06/23 07:56:13;;;;;;;3.88;3.58;;;24.00;99.90;;;-141.84;37.07;20952.13;5074063;28;20293;-63
2022/06/23 07:58:43;;;;;;;4.28;3.88;;;24.00;99.90;;;-141.84;36.98;20982.63;5073765;28;20188;-63
2022/06/23 08:01:18;;;;;;;4.78;4.30;;;24.10;99.90;;;-141.84;37.15;20954.16;5073486;28;20577;-62
2022/06/23 08:03:57;;;;;;;4.13;3.72;;;24.00;99.90;;;-141.84;37.24;20950.09;5073329;28;20307;-62
2022/06/23 08:06:28;;;;;;;5.82;3.80;;;24.10;99.90;;;-141.84;36.22;20972.47;5073670;28;20252;-64
2022/06/23 08:09:03;;;;;;;4.00;3.60;;;24.10;99.90;;;-141.84;35.48;21037.50;5073034;28;20224;-62
2022/06/23 08:14:42;;;;;;;4.10;3.70;;;24.10;99.90;;;-141.84;35.17;21025.31;5073110;28;20228;-63
2022/06/23 08:17:17;;;;;;;3.65;3.35;;;24.10;99.90;;;-141.84;35.28;21078.16;5073711;28;20231;-62
2022/06/23 08:19:55;;;;;;;4.32;3.92;;;24.10;99.90;;;-141.84;35.19;21017.19;5072717;28;20232;-63
2022/06/23 08:22:30;;;;;;;5.35;3.92;;;24.10;99.90;;;-141.84;35.15;21029.38;5073305;28;20682;-62
2022/06/23 08:25:06;;;;;;;4.18;3.40;;;24.20;99.90;;;-141.84;35.03;21088.34;5072708;28;20231;-63
2022/06/23 08:27:53;;;;;;;3.92;3.33;;;24.20;99.90;;;-141.84;34.67;21065.97;5073126;28;20302;-63
2022/06/23 08:30:25;;;;;;;3.53;3.20;;;24.30;99.90;;;-141.84;34.57;21090.38;5072085;28;20243;-62
2022/06/23 08:32:55;;;;;;;5.28;3.33;;;24.30;99.90;;;-141.84;34.93;21061.91;5072673;28;20259;-64
2022/06/23 08:35:36;;;;;;;3.60;3.30;;;24.30;99.90;;;-141.84;33.62;21135.09;5072550;28;20656;-62
2022/06/23 08:38:12;;;;;;;3.83;3.35;;;24.40;99.40;;;-141.84;33.57;21135.09;5073121;28;20233;-62
2022/06/23 08:41:06;;;;;;;3.35;3.00;;;24.40;98.70;;;-141.84;32.66;21200.16;5073077;28;20269;-63
2022/06/23 08:43:42;;;;;;;3.33;3.03;;;24.50;98.70;;;-141.84;33.36;21173.72;5072935;28;20429;-62
2022/06/23 08:46:23;;;;;;;3.63;2.90;;;24.60;98.80;;;-141.84;32.65;21196.09;5072908;28;20205;-63
2022/06/23 08:49:03;;;;;;;3.72;3.00;;;24.70;98.20;;;-141.84;32.87;21198.13;5072568;28;20723;-63
2022/06/23 08:51:52;;;;;;;3.10;2.75;;;24.70;98.30;;;-141.84;33.45;21202.19;5072454;28;20225;-62
2022/06/23 08:54:35;;;;;;;3.40;3.05;;;24.70;98.50;;;-141.84;33.25;21192.03;5072393;28;20224;-64
2022/06/23 08:57:11;;;;;;;3.33;3.03;;;24.80;98.40;;;-141.84;32.49;21265.22;5072563;28;20260;-62
2022/06/23 08:59:57;;;;;;;3.63;3.33;;;24.90;97.90;;;-141.84;32.91;21220.47;5072218;28;20229;-64
2022/06/23 09:02:33;;;;;;;3.45;3.13;;;25.00;98.20;;;-141.84;33.01;21196.09;5072181;28;20566;-63
2022/06/23 09:05:38;;;;;;;4.50;2.80;;;24.90;98.10;;;-141.84;32.49;21263.19;5072171;28;20225;-62
2022/06/23 09:08:18;;;;;;;4.53;3.00;;;25.00;97.50;;;-141.84;32.62;21281.47;5072415;28;20229;-61
2022/06/23 09:11:16;;;;;;;4.57;3.17;;;25.00;97.70;;;-141.84;32.79;21259.13;5071948;28;20228;-62
2022/06/23 09:14:07;;;;;;;3.30;3.00;;;25.20;98.20;;;-141.84;32.30;21330.28;5072197;28;20185;-63
2022/06/23 09:16:57;;;;;;;4.93;2.90;;;25.30;97.80;;;-141.84;32.22;21334.34;5072563;28;20187;-61
2022/06/23 09:19:58;;;;;;;3.30;3.03;;;25.40;97.40;;;-141.84;31.76;21391.28;5072104;28;20209;-61
2022/06/23 09:23:00;;;;;;;3.80;3.13;;;25.50;97.10;;;-141.84;31.49;21395.34;5052108;28;20205;-61
2022/06/23 09:25:41;;;;;;;2.80;2.60;;;25.60;96.80;;;-141.84;30.83;21427.88;5065501;28;20212;-59
2022/06/23 09:28:25;;;;;;;3.33;2.60;;;25.60;95.60;;;-141.84;31.28;21368.91;5072041;28;20216;-64
2022/06/23 09:31:11;;;;;;;2.90;2.70;;;25.60;95.90;;;-141.84;29.75;21492.94;5071393;28;20339;-59
2022/06/23 09:34:02;;;;;;;3.80;2.63;;;25.60;94.60;;;-141.84;29.53;21523.44;5051252;28;20649;-60
2022/06/23 09:37:24;;;;;;;3.00;2.63;;;25.70;94.10;;;-141.84;29.17;21529.53;5067882;28;20224;-63
2022/06/23 09:40:34;;;;;;;3.25;2.55;;;25.80;93.70;;;-141.84;29.85;21492.94;5071047;28;20229;-61
2022/06/23 09:43:45;;;;;;;2.70;2.50;;;25.90;94.20;;;-141.84;29.10;21549.84;5071147;28;20491;-60
2022/06/23 09:46:52;;;;;;;2.78;2.58;;;25.90;93.60;;;-141.84;29.05;21547.81;5071626;28;20284;-61
2022/06/23 09:50:02;;;;;;;3.20;2.67;;;25.90;93.30;;;-141.84;29.21;21529.53;5071915;28;20709;-60
2022/06/23 09:52:57;;;;;;;3.08;2.38;;;25.90;93.20;;;-141.84;29.34;21513.25;5071507;28;20631;-61
2022/06/23 09:55:49;;;;;;;4.35;2.70;;;25.90;93.10;;;-141.84;29.12;21545.78;5071365;28;20201;-61
2022/06/23 09:58:54;;;;;;;2.58;2.38;;;25.90;93.00;;;-141.84;29.26;21543.75;5071610;28;20291;-60
2022/06/23 10:01:38;;;;;;;4.32;2.50;;;26.00;93.00;;;-141.84;28.83;21578.31;5071067;28;20782;-61
2022/06/23 10:04:45;;;;;;;2.58;2.42;;;26.00;92.60;;;-141.84;28.75;21588.50;5070861;28;20235;-62
2022/06/23 10:07:43;;;;;;;2.33;2.13;;;26.10;92.30;;;-141.84;28.90;21566.13;5070932;28;20208;-61
2022/06/23 10:10:36;;;;;;;2.40;2.20;;;26.00;92.40;;;-141.84;28.46;21623.06;5071201;28;20205;-63
2022/06/23 10:13:37;;;;;;;4.05;2.00;;;26.10;92.10;;;-141.84;28.19;21645.44;5070425;28;20234;-67
2022/06/23 10:16:32;;;;;;;2.40;2.20;;;26.10;91.50;;;-141.84;28.19;21639.31;5070701;28;20254;-66
2022/06/23 10:19:24;;;;;;;2.47;2.28;;;26.30;91.80;;;-141.84;27.97;21663.72;5070818;28;20709;-64
2022/06/23 10:22:23;;;;;;;4.00;2.00;;;26.30;91.40;;;-141.84;28.05;21667.78;5070330;28;20236;-63
2022/06/23 10:25:15;;;;;;;2.30;2.10;;;26.30;91.30;;;-141.84;27.54;21720.66;5070339;28;20220;-64
2022/06/23 10:28:07;;;;;;;2.30;2.20;;;26.40;90.80;;;-141.84;27.89;21686.09;5070835;28;20228;-63
2022/06/23 10:30:49;;;;;;;2.30;2.10;;;26.40;91.00;;;-141.84;27.66;21720.66;5070767;28;20221;-63
2022/06/23 10:33:43;;;;;;;2.90;2.58;;;26.50;90.60;;;-141.84;27.48;21718.63;5070300;28;20711;-64
2022/06/23 10:36:44;;;;;;;2.20;2.10;;;26.50;90.60;;;-141.84;27.57;21738.97;5070343;28;20227;-63
2022/06/23 10:39:42;;;;;;;2.60;2.40;;;26.50;90.30;;;-141.84;27.65;21722.69;5070525;28;20221;-64
2022/06/23 10:42:40;;;;;;;2.30;2.20;;;26.50;90.60;;;-141.84;27.79;21738.97;5070352;28;20258;-66
2022/06/23 10:45:30;;;;;;;2.47;2.28;;;26.60;90.80;;;-141.84;27.11;21777.59;5070436;28;20232;-62
2022/06/23 10:48:56;;;;;;;2.78;2.42;;;26.70;89.40;;;-141.84;27.19;21771.50;5070634;28;20308;-62
2022/06/23 10:51:56;;;;;;;2.50;2.30;;;26.70;90.00;;;-141.84;27.36;21789.78;5040834;28;20244;-65
2022/06/23 10:54:56;;;;;;;2.65;2.45;;;26.80;90.30;;;-141.84;27.69;21797.94;5049659;28;20239;-63
2022/06/23 10:58:04;;;;;;;3.10;2.47;;;26.90;90.70;;;-141.84;27.70;21814.19;5050094;28;20664;-63
2022/06/23 11:00:49;;;;;;;2.40;2.30;;;27.00;90.60;;;-141.84;27.40;21834.53;5048355;28;20220;-64
2022/06/23 11:03:46;;;;;;;2.35;2.15;;;27.00;90.30;;;-141.84;25.67;21919.94;5052001;28;20290;-63
2022/06/23 11:06:54;;;;;;;2.30;1.88;;;27.10;85.70;;;-141.84;26.13;21919.94;5070138;28;20225;-63
2022/06/23 11:09:59;;;;;;;2.30;2.10;;;27.10;86.40;;;-141.84;26.23;21948.41;5069948;28;20697;-63
2022/06/23 11:12:50;;;;;;;2.88;2.30;;;27.20;86.40;;;-141.84;25.80;21956.53;5048684;28;20723;-63